createdAt,value
2023-02-25T00:00:21.283Z,31.77
2023-02-25T00:03:10.273Z,34.27
2023-02-25T00:05:40.426Z,38.73
2023-02-25T00:08:09.456Z,30.60
2023-02-25T00:10:38.250Z,29.37
2023-02-25T00:13:17.777Z,32.97
2023-02-25T00:15:47.587Z,35.40
2023-02-25T00:18:16.788Z,30.77
2023-02-25T00:20:45.641Z,33.90
2023-02-25T00:23:14.572Z,30.80
2023-02-25T00:25:45.574Z,36.83
2023-02-25T00:28:15.976Z,32.43
2023-02-25T00:30:44.879Z,28.87
2023-02-25T00:33:14.280Z,26.97
2023-02-25T00:35:43.520Z,31.70
2023-02-25T00:38:16.004Z,25.10
2023-02-25T00:40:47.826Z,25.57
2023-02-25T00:43:16.646Z,28.57
2023-02-25T00:45:45.815Z,26.43
2023-02-25T00:48:15.263Z,25.30
2023-02-25T00:50:44.123Z,28.63
2023-02-25T00:53:12.927Z,28.67
2023-02-25T00:55:42.309Z,24.87
2023-02-25T00:58:11.984Z,27.77
2023-02-25T01:00:51.738Z,25.77
2023-02-25T01:03:21.634Z,26.23
2023-02-25T01:05:50.723Z,24.87
2023-02-25T01:08:20.617Z,26.30
2023-02-25T01:10:49.776Z,26.67
2023-02-25T01:13:18.707Z,28.30
2023-02-25T01:15:49.538Z,28.50
2023-02-25T01:18:20.087Z,28.83
2023-02-25T01:20:48.978Z,22.77
2023-02-25T01:23:17.767Z,28.63
2023-02-25T01:25:46.636Z,26.80
2023-02-25T01:28:15.918Z,28.27
2023-02-25T01:30:45.121Z,23.27
2023-02-25T01:33:14.190Z,20.73
2023-02-25T01:35:43.023Z,21.13
2023-02-25T01:38:12.350Z,21.77
2023-02-25T01:40:41.192Z,22.83
2023-02-25T01:43:15.552Z,23.33
2023-02-25T01:48:17.246Z,20.33
2023-02-25T01:50:50.148Z,23.10
2023-02-25T01:53:24.418Z,22.17
2023-02-25T01:55:55.224Z,24.33
2023-02-25T01:58:25.415Z,23.87
2023-02-25T02:00:55.147Z,22.63
2023-02-25T02:03:28.208Z,21.73
2023-02-25T02:06:06.071Z,22.30
2023-02-25T02:08:36.884Z,24.53
2023-02-25T02:11:06.186Z,22.95
2023-02-25T02:13:38.543Z,26.70
2023-02-25T02:16:22.387Z,22.40
2023-02-25T02:18:57.361Z,21.35
2023-02-25T02:21:48.262Z,23.30
2023-02-25T02:24:45.929Z,23.63
2023-02-25T02:27:24.089Z,23.93
2023-02-25T02:30:25.829Z,25.10
2023-02-25T02:33:03.188Z,25.50
2023-02-25T02:35:39.290Z,21.30
2023-02-25T02:38:14.289Z,26.97
2023-02-25T02:40:57.962Z,22.60
2023-02-25T02:43:40.166Z,26.73
2023-02-25T02:46:18.145Z,26.33
2023-02-25T02:48:55.426Z,27.97
2023-02-25T02:51:31.798Z,23.13
2023-02-25T02:54:05.774Z,21.87
2023-02-25T02:56:39.013Z,29.18
2023-02-25T02:59:12.247Z,23.10
2023-02-25T03:01:45.980Z,22.57
2023-02-25T03:04:21.465Z,23.07
2023-02-25T03:06:56.340Z,28.63
2023-02-25T03:09:30.293Z,24.50
2023-02-25T03:12:00.111Z,25.25
2023-02-25T03:14:29.219Z,25.57
2023-02-25T03:17:05.261Z,24.63
2023-02-25T03:19:39.994Z,22.93
2023-02-25T03:22:15.864Z,25.17
2023-02-25T03:24:49.977Z,26.03
2023-02-25T03:27:25.813Z,25.82
2023-02-25T03:30:03.733Z,26.50
2023-02-25T03:32:41.182Z,22.30
2023-02-25T03:35:12.880Z,21.70
2023-02-25T03:37:44.282Z,22.00
2023-02-25T03:40:16.338Z,20.10
2023-02-25T03:42:49.900Z,21.50
2023-02-25T03:45:21.556Z,23.57
2023-02-25T03:47:51.265Z,23.03
2023-02-25T03:50:21.697Z,23.17
2023-02-25T03:52:55.510Z,24.97
2023-02-25T03:55:46.841Z,21.77
2023-02-25T03:58:18.375Z,20.25
2023-02-25T04:00:50.678Z,21.10
2023-02-25T04:03:20.077Z,23.37
2023-02-25T04:05:48.942Z,20.50
2023-02-25T04:08:19.091Z,21.60
2023-02-25T04:10:48.421Z,18.23
2023-02-25T04:13:20.357Z,21.43
2023-02-25T04:15:50.786Z,21.73
2023-02-25T04:18:19.739Z,21.20
2023-02-25T04:20:48.511Z,18.37
2023-02-25T04:23:17.648Z,20.03
2023-02-25T04:25:46.502Z,22.47
2023-02-25T04:28:15.442Z,20.53
2023-02-25T04:30:44.713Z,19.10
2023-02-25T04:33:14.115Z,21.87
2023-02-25T04:35:43.780Z,20.43
2023-02-25T04:38:12.614Z,21.60
2023-02-25T04:40:42.303Z,18.63
2023-02-25T04:43:14.190Z,20.27
2023-02-25T04:45:43.049Z,19.70
2023-02-25T04:48:12.044Z,16.57
2023-02-25T04:50:41.156Z,17.80
2023-02-25T04:53:09.977Z,16.93
2023-02-25T04:55:38.926Z,20.17
2023-02-25T04:58:07.769Z,17.75
2023-02-25T05:00:40.082Z,17.70
2023-02-25T05:03:08.873Z,18.00
2023-02-25T05:05:38.178Z,17.47
2023-02-25T05:08:07.089Z,18.50
2023-02-25T05:10:36.631Z,17.57
2023-02-25T05:13:06.090Z,17.07
2023-02-25T05:15:34.936Z,16.53
2023-02-25T05:18:04.939Z,18.90
2023-02-25T05:20:33.826Z,16.93
2023-02-25T05:23:02.671Z,15.97
2023-02-25T05:25:33.155Z,18.50
2023-02-25T05:28:02.048Z,17.73
2023-02-25T05:30:31.025Z,19.80
2023-02-25T05:32:59.841Z,17.77
2023-02-25T05:35:28.652Z,18.43
2023-02-25T05:37:57.986Z,18.17
2023-02-25T05:40:27.187Z,18.00
2023-02-25T05:42:57.465Z,15.37
2023-02-25T05:45:26.306Z,17.15
2023-02-25T05:47:56.847Z,16.63
2023-02-25T05:50:25.631Z,23.90
2023-02-25T05:52:54.669Z,23.70
2023-02-25T05:55:26.568Z,18.50
2023-02-25T05:57:55.385Z,18.93
2023-02-25T06:00:24.449Z,18.90
2023-02-25T06:02:53.298Z,21.63
2023-02-25T06:05:22.082Z,18.37
2023-02-25T06:07:51.041Z,18.07
2023-02-25T06:10:21.784Z,19.85
2023-02-25T06:12:50.927Z,21.40
2023-02-25T06:15:20.397Z,19.17
2023-02-25T06:17:49.760Z,20.17
2023-02-25T06:20:19.166Z,20.73
2023-02-25T06:22:48.113Z,19.47
2023-02-25T06:25:17.122Z,20.53
2023-02-25T06:27:45.917Z,20.50
2023-02-25T06:30:15.234Z,21.27
2023-02-25T06:32:44.184Z,22.13
2023-02-25T06:35:14.076Z,22.07
2023-02-25T06:37:43.070Z,24.65
2023-02-25T06:40:15.145Z,24.50
2023-02-25T06:42:44.326Z,23.83
2023-02-25T06:45:13.255Z,25.53
2023-02-25T06:47:42.362Z,25.43
2023-02-25T06:50:12.867Z,23.10
2023-02-25T06:52:41.657Z,26.30
2023-02-25T06:55:11.673Z,24.13
2023-02-25T06:57:49.352Z,28.60
2023-02-25T07:00:19.773Z,28.00
2023-02-25T07:02:48.674Z,27.73
2023-02-25T07:05:17.860Z,25.10
2023-02-25T07:07:47.149Z,24.70
2023-02-25T07:10:16.145Z,28.23
2023-02-25T07:12:45.362Z,29.63
2023-02-25T07:15:14.252Z,26.20
2023-02-25T07:17:43.158Z,30.50
2023-02-25T07:20:13.810Z,50.93
2023-02-25T07:22:43.125Z,31.17
2023-02-25T07:25:12.682Z,28.43
2023-02-25T07:27:45.676Z,36.97
2023-02-25T07:30:15.511Z,35.97
2023-02-25T07:32:45.186Z,29.30
2023-02-25T07:35:14.789Z,29.90
2023-02-25T07:37:43.688Z,29.20
2023-02-25T07:40:15.969Z,26.37
2023-02-25T07:42:45.149Z,32.43
2023-02-25T07:45:14.530Z,28.33
2023-02-25T07:47:43.477Z,25.77
2023-02-25T07:50:13.311Z,26.73
2023-02-25T07:52:42.373Z,26.43
2023-02-25T07:55:12.571Z,26.03
2023-02-25T07:57:42.050Z,28.57
2023-02-25T08:00:13.386Z,24.90
2023-02-25T08:02:43.389Z,27.17
2023-02-25T08:05:12.416Z,24.23
2023-02-25T08:07:41.230Z,26.73
2023-02-25T08:10:12.173Z,25.33
2023-02-25T08:12:42.615Z,22.77
2023-02-25T08:15:12.508Z,23.30
2023-02-25T08:17:41.377Z,23.10
2023-02-25T08:20:14.198Z,24.33
2023-02-25T08:22:43.115Z,24.37
2023-02-25T08:25:11.973Z,25.97
2023-02-25T08:27:43.543Z,26.50
2023-02-25T08:30:14.634Z,23.77
2023-02-25T08:32:43.777Z,22.07
2023-02-25T08:35:13.795Z,21.90
2023-02-25T08:37:44.903Z,21.97
2023-02-25T08:40:14.471Z,21.80
2023-02-25T08:42:43.832Z,24.77
2023-02-25T08:45:13.001Z,20.43
2023-02-25T08:47:42.046Z,21.37
2023-02-25T08:50:12.676Z,22.13
2023-02-25T08:52:42.335Z,19.80
2023-02-25T08:55:14.324Z,27.50
2023-02-25T08:57:43.971Z,45.87
2023-02-25T09:00:15.434Z,105.70
2023-02-25T09:02:44.552Z,282.77
2023-02-25T09:05:13.848Z,357.33
2023-02-25T09:07:42.785Z,396.97
2023-02-25T09:10:13.608Z,182.07
2023-02-25T09:12:45.979Z,88.03
2023-02-25T09:15:15.202Z,27.93
2023-02-25T09:17:44.011Z,23.70
2023-02-25T09:20:13.068Z,18.50
2023-02-25T09:22:41.896Z,17.77
2023-02-25T09:25:11.467Z,17.70
2023-02-25T09:27:44.246Z,17.80
2023-02-25T09:30:14.899Z,20.53
2023-02-25T09:32:44.874Z,15.53
2023-02-25T09:35:13.910Z,17.50
2023-02-25T09:37:42.760Z,15.47
2023-02-25T09:40:16.715Z,13.87
2023-02-25T09:42:53.408Z,18.45
2023-02-25T09:45:25.014Z,15.03
2023-02-25T09:47:58.530Z,12.43
2023-02-25T09:50:32.071Z,15.05
2023-02-25T09:53:10.939Z,17.87
2023-02-25T09:55:44.554Z,41.03
2023-02-25T09:58:24.135Z,22.97
2023-02-25T10:01:01.880Z,13.30
2023-02-25T10:03:45.668Z,15.20
2023-02-25T10:06:22.233Z,11.67
2023-02-25T10:08:59.489Z,12.27
2023-02-25T10:11:41.031Z,9.75
2023-02-25T10:14:22.249Z,10.27
2023-02-25T10:16:59.442Z,17.33
2023-02-25T10:19:43.233Z,14.13
2023-02-25T10:22:34.119Z,10.40
2023-02-25T10:25:12.047Z,7.00
2023-02-25T10:27:50.550Z,4.87
2023-02-25T10:30:26.212Z,7.65
2023-02-25T10:32:55.777Z,11.13
2023-02-25T10:35:28.145Z,10.13
2023-02-25T10:37:56.987Z,10.80
2023-02-25T10:40:28.751Z,8.57
2023-02-25T10:43:01.558Z,10.03
2023-02-25T10:45:32.396Z,8.20
2023-02-25T10:48:06.931Z,10.40
2023-02-25T10:50:45.395Z,13.53
2023-02-25T10:53:17.286Z,14.73
2023-02-25T10:55:51.756Z,12.10
2023-02-25T10:58:28.245Z,7.33
2023-02-25T11:01:01.661Z,14.50
2023-02-25T11:03:32.901Z,6.87
2023-02-25T11:06:20.676Z,7.97
2023-02-25T11:08:52.221Z,8.90
2023-02-25T11:11:24.219Z,8.07
2023-02-25T11:14:05.294Z,11.70
2023-02-25T11:16:37.488Z,21.87
2023-02-25T11:19:17.633Z,12.03
2023-02-25T11:21:47.766Z,11.00
2023-02-25T11:24:23.320Z,13.13
2023-02-25T11:26:53.436Z,16.90
2023-02-25T11:29:26.092Z,20.90
2023-02-25T11:31:59.556Z,19.73
2023-02-25T11:34:31.264Z,21.83
2023-02-25T11:37:24.692Z,15.30
2023-02-25T11:39:56.281Z,12.40
2023-02-25T11:42:26.850Z,22.07
2023-02-25T11:45:01.918Z,12.83
2023-02-25T11:47:33.729Z,13.07
2023-02-25T11:50:24.024Z,19.30
2023-02-25T11:53:04.015Z,40.43
2023-02-25T11:55:53.303Z,30.50
2023-02-25T11:58:37.722Z,17.30
2023-02-25T12:01:17.329Z,12.65
2023-02-25T12:04:05.804Z,10.37
2023-02-25T12:06:51.931Z,7.63
2023-02-25T12:09:43.124Z,11.87
2023-02-25T12:12:44.265Z,9.63
2023-02-25T12:16:03.844Z,16.87
2023-02-25T12:19:14.828Z,15.87
2023-02-25T12:22:12.486Z,7.70
2023-02-25T12:25:12.387Z,9.03
2023-02-25T12:27:54.398Z,9.47
2023-02-25T12:30:52.420Z,12.60
2023-02-25T12:33:56.703Z,15.40
2023-02-25T12:36:42.334Z,13.53
2023-02-25T12:39:26.667Z,14.30
2023-02-25T12:42:05.499Z,13.35
2023-02-25T12:45:09.882Z,12.53
2023-02-25T12:47:57.465Z,12.37
2023-02-25T12:50:52.615Z,12.43
2023-02-25T12:53:37.875Z,11.30
2023-02-25T12:56:28.651Z,14.17
2023-02-25T12:59:11.574Z,19.17
2023-02-25T13:02:12.732Z,13.53
2023-02-25T13:04:58.517Z,9.50
2023-02-25T13:07:48.650Z,8.33
2023-02-25T13:10:34.621Z,7.03
2023-02-25T13:13:20.292Z,9.53
2023-02-25T13:16:04.231Z,9.30
2023-02-25T13:18:41.851Z,13.53
2023-02-25T13:21:35.543Z,26.77
2023-02-25T13:24:17.537Z,11.28
2023-02-25T13:27:13.495Z,9.90
2023-02-25T13:30:12.828Z,21.60
2023-02-25T13:32:54.656Z,14.53
2023-02-25T13:35:38.786Z,10.57
2023-02-25T13:38:23.680Z,8.58
2023-02-25T13:41:06.589Z,8.33
2023-02-25T13:44:05.655Z,7.90
2023-02-25T13:46:52.809Z,7.27
2023-02-25T13:49:50.940Z,18.37
2023-02-25T13:52:28.633Z,18.50
2023-02-25T13:55:23.491Z,14.97
2023-02-25T13:58:13.061Z,12.77
2023-02-25T14:01:00.158Z,11.83
2023-02-25T14:04:19.259Z,7.03
2023-02-25T14:07:10.836Z,13.87
2023-02-25T14:09:46.115Z,10.20
2023-02-25T14:12:33.603Z,12.07
2023-02-25T14:15:32.572Z,10.03
2023-02-25T14:18:20.006Z,19.80
2023-02-25T14:21:05.447Z,25.67
2023-02-25T14:23:45.893Z,74.03
2023-02-25T14:26:30.534Z,89.80
2023-02-25T14:29:20.311Z,34.57
2023-02-25T14:32:01.865Z,49.53
2023-02-25T14:34:56.375Z,39.93
2023-02-25T14:37:39.587Z,36.83
2023-02-25T14:40:25.593Z,38.70
2023-02-25T14:43:26.659Z,25.67
2023-02-25T14:46:00.707Z,44.87
2023-02-25T14:48:39.272Z,24.00
2023-02-25T14:51:35.094Z,15.00
2023-02-25T14:54:41.550Z,11.63
2023-02-25T14:57:45.147Z,8.60
2023-02-25T15:00:51.541Z,8.27
2023-02-25T15:03:50.454Z,8.53
2023-02-25T15:06:37.242Z,9.97
2023-02-25T15:09:31.021Z,12.33
2023-02-25T15:12:16.832Z,8.87
2023-02-25T15:15:26.217Z,9.10
2023-02-25T15:18:22.906Z,8.20
2023-02-25T15:20:53.071Z,7.83
2023-02-25T15:23:41.141Z,11.17
2023-02-25T15:26:23.811Z,9.03
2023-02-25T15:28:54.930Z,12.00
2023-02-25T15:31:30.265Z,15.20
2023-02-25T15:34:38.074Z,21.67
2023-02-25T15:37:29.881Z,9.70
2023-02-25T15:40:02.267Z,12.53
2023-02-25T15:42:48.045Z,28.20
2023-02-25T15:45:52.111Z,23.93
2023-02-25T15:48:39.311Z,19.77
2023-02-25T15:51:32.241Z,22.07
2023-02-25T15:54:02.686Z,57.87
2023-02-25T15:56:48.111Z,45.57
2023-02-25T15:59:43.285Z,35.93
2023-02-25T16:02:45.884Z,36.17
2023-02-25T16:05:25.146Z,20.67
2023-02-25T16:08:13.363Z,27.43
2023-02-25T16:10:46.162Z,27.40
2023-02-25T16:13:21.749Z,44.77
2023-02-25T16:15:55.921Z,36.50
2023-02-25T16:21:05.768Z,31.93
2023-02-25T16:23:40.622Z,26.70
2023-02-25T16:26:22.137Z,24.90
2023-02-25T16:29:00.518Z,30.17
2023-02-25T16:31:38.996Z,29.03
2023-02-25T16:34:16.717Z,17.20
2023-02-25T16:36:54.526Z,17.30
2023-02-25T16:39:29.944Z,16.73
2023-02-25T16:42:06.022Z,18.03
2023-02-25T16:44:38.667Z,29.20
2023-02-25T16:47:23.601Z,26.87
2023-02-25T16:49:54.734Z,14.93
2023-02-25T16:52:29.919Z,13.20
2023-02-25T16:55:04.791Z,12.10
2023-02-25T16:57:38.394Z,11.47
2023-02-25T17:00:16.606Z,11.33
2023-02-25T17:02:47.530Z,10.37
2023-02-25T17:05:29.959Z,10.63
2023-02-25T17:08:01.591Z,8.03
2023-02-25T17:10:33.359Z,11.93
2023-02-25T17:13:04.278Z,12.70
2023-02-25T17:15:35.316Z,13.20
2023-02-25T17:18:09.991Z,15.00
2023-02-25T17:20:41.534Z,19.20
2023-02-25T17:23:12.294Z,17.10
2023-02-25T17:25:45.556Z,23.20
2023-02-25T17:28:21.761Z,28.27
2023-02-25T17:30:54.640Z,21.80
2023-02-25T17:33:26.995Z,25.93
2023-02-25T17:35:59.835Z,23.53
2023-02-25T17:38:30.502Z,21.80
2023-02-25T17:41:00.324Z,23.50
2023-02-25T17:43:36.801Z,18.37
2023-02-25T17:46:21.390Z,12.27
2023-02-25T17:48:55.607Z,13.77
2023-02-25T17:51:33.371Z,12.98
2023-02-25T17:54:08.402Z,14.40
2023-02-25T17:56:42.911Z,13.33
2023-02-25T17:59:38.119Z,12.77
2023-02-25T18:02:29.268Z,12.43
2023-02-25T18:05:21.770Z,15.13
2023-02-25T18:08:10.536Z,12.43
2023-02-25T18:10:46.269Z,14.03
2023-02-25T18:13:24.238Z,18.73
2023-02-25T18:16:34.292Z,16.50
2023-02-25T18:19:23.311Z,18.00
2023-02-25T18:21:53.399Z,17.90
2023-02-25T18:24:29.094Z,17.80
2023-02-25T18:27:26.536Z,19.37
2023-02-25T18:29:59.655Z,17.27
2023-02-25T18:32:28.963Z,15.63
2023-02-25T18:34:58.641Z,15.73
2023-02-25T18:37:31.716Z,15.63
2023-02-25T18:40:01.083Z,23.10
2023-02-25T18:42:30.397Z,23.23
2023-02-25T18:44:59.478Z,20.27
2023-02-25T18:47:33.125Z,22.73
2023-02-25T18:50:02.370Z,28.85
2023-02-25T18:52:31.651Z,38.33
2023-02-25T18:55:00.720Z,36.70
2023-02-25T18:57:30.156Z,50.37
2023-02-25T18:59:59.205Z,32.77
2023-02-25T19:02:31.685Z,41.87
2023-02-25T19:05:02.666Z,38.03
2023-02-25T19:07:34.514Z,25.70
2023-02-25T19:10:07.391Z,21.53
2023-02-25T19:12:40.666Z,18.70
2023-02-25T19:15:15.756Z,15.68
2023-02-25T19:17:45.907Z,14.20
2023-02-25T19:20:20.904Z,17.77
2023-02-25T19:22:52.623Z,13.93
2023-02-25T19:25:23.933Z,11.67
2023-02-25T19:27:55.745Z,12.47
2023-02-25T19:30:28.652Z,15.70
2023-02-25T19:33:03.532Z,11.77
2023-02-25T19:35:39.025Z,13.27
2023-02-25T19:38:11.542Z,11.13
2023-02-25T19:40:40.641Z,11.53
2023-02-25T19:43:09.895Z,12.13
2023-02-25T19:45:42.137Z,11.43
2023-02-25T19:48:11.647Z,10.57
2023-02-25T19:50:42.315Z,11.47
2023-02-25T19:53:11.738Z,11.03
2023-02-25T19:55:43.750Z,11.20
2023-02-25T19:58:12.953Z,8.63
2023-02-25T20:00:46.841Z,8.67
2023-02-25T20:03:16.529Z,9.37
2023-02-25T20:05:45.495Z,7.43
2023-02-25T20:08:14.406Z,8.67
2023-02-25T20:10:44.145Z,13.63
2023-02-25T20:13:13.656Z,12.23
2023-02-25T20:15:42.508Z,10.53
2023-02-25T20:18:11.658Z,11.73
2023-02-25T20:20:42.704Z,10.43
2023-02-25T20:23:12.028Z,11.20
2023-02-25T20:25:42.020Z,13.77
2023-02-25T20:28:11.876Z,13.23
2023-02-25T20:30:40.848Z,14.47
2023-02-25T20:33:11.510Z,30.90
2023-02-25T20:35:42.640Z,14.37
2023-02-25T20:38:29.531Z,15.67
2023-02-25T20:40:59.529Z,16.30
2023-02-25T20:43:28.926Z,10.87
2023-02-25T20:45:58.697Z,11.47
2023-02-25T20:48:32.264Z,7.93
2023-02-25T20:51:01.792Z,11.10
2023-02-25T20:53:32.851Z,8.50
2023-02-25T20:56:01.886Z,9.50
2023-02-25T20:58:31.491Z,17.63
2023-02-25T21:01:00.902Z,17.37
2023-02-25T21:03:30.932Z,15.90
2023-02-25T21:06:00.588Z,9.73
2023-02-25T21:08:29.844Z,10.90
2023-02-25T21:10:59.374Z,9.47
2023-02-25T21:13:28.927Z,8.57
2023-02-25T21:16:00.393Z,8.03
2023-02-25T21:18:31.429Z,9.05
2023-02-25T21:21:07.760Z,8.45
2023-02-25T21:23:39.039Z,9.70
2023-02-25T21:26:09.734Z,8.70
2023-02-25T21:28:41.049Z,8.10
2023-02-25T21:31:12.073Z,6.60
2023-02-25T21:33:42.186Z,7.73
2023-02-25T21:36:12.457Z,11.17
2023-02-25T21:38:41.739Z,11.63
2023-02-25T21:41:12.930Z,10.77
2023-02-25T21:43:43.010Z,9.10
2023-02-25T21:46:18.284Z,6.83
2023-02-25T21:48:55.158Z,7.73
2023-02-25T21:51:25.977Z,8.13
2023-02-25T21:53:56.748Z,7.60
2023-02-25T21:56:27.434Z,7.53
2023-02-25T21:58:58.591Z,8.90
2023-02-25T22:01:29.931Z,19.13
2023-02-25T22:03:59.754Z,21.35
2023-02-25T22:06:29.559Z,16.97
2023-02-25T22:08:59.169Z,15.13
2023-02-25T22:11:31.208Z,13.40
2023-02-25T22:14:02.336Z,15.00
2023-02-25T22:16:31.620Z,16.87
2023-02-25T22:19:00.678Z,12.43
2023-02-25T22:21:31.814Z,8.43
2023-02-25T22:24:02.487Z,7.40
2023-02-25T22:26:34.605Z,7.53
2023-02-25T22:29:06.842Z,7.17
2023-02-25T22:31:40.877Z,8.17
2023-02-25T22:34:11.195Z,9.10
2023-02-25T22:36:43.748Z,8.80
2023-02-25T22:39:20.117Z,7.73
2023-02-25T22:41:53.852Z,7.50
2023-02-25T22:44:23.629Z,9.37
2023-02-25T22:46:55.290Z,9.27
2023-02-25T22:49:26.363Z,8.47
2023-02-25T22:51:56.627Z,11.27
2023-02-25T22:54:27.722Z,8.07
2023-02-25T22:56:59.671Z,9.47
2023-02-25T22:59:29.067Z,10.33
2023-02-25T23:01:59.871Z,10.43
2023-02-25T23:04:30.846Z,7.30
2023-02-25T23:07:04.612Z,8.10
2023-02-25T23:09:33.750Z,6.22
2023-02-25T23:12:03.577Z,8.27
2023-02-25T23:14:35.101Z,7.77
2023-02-25T23:17:04.107Z,8.43
2023-02-25T23:19:33.099Z,9.93
2023-02-25T23:22:03.849Z,8.13
2023-02-25T23:24:33.459Z,8.07
2023-02-25T23:27:03.300Z,8.23
2023-02-25T23:29:32.439Z,13.33
2023-02-25T23:32:02.385Z,8.03
2023-02-25T23:34:31.912Z,10.33
2023-02-25T23:37:04.597Z,9.57
2023-02-25T23:39:34.191Z,10.03
2023-02-25T23:42:03.191Z,10.97
2023-02-25T23:44:32.248Z,8.85
2023-02-25T23:47:01.827Z,8.43
2023-02-25T23:49:31.357Z,8.67
2023-02-25T23:52:08.433Z,9.90
2023-02-25T23:54:38.610Z,6.80
2023-02-25T23:57:07.752Z,8.63
2023-02-25T23:59:37.838Z,9.10
